DLH9PV LFML-EDDM
Flight info
| Callsign | DLH9PV |
|---|---|
| Flight time | N/A |
| Altitude | 30000 |
| Route | ETREK DCT LUXAN DCT LTP DCT SOPLO DCT OMASI DCT KINNI DCT LAMUR DCT KORED DCT NUNRI T103 BETOS BETOS1B |
| Aircraft | A320/M-SDE3FGHIRWY/LB1 |
Departure
| Time | 2026-05-05 11:32 |
|---|---|
| Airport | Marseille Provence Airport (LFML) |
Arrival
| Time | N/A |
|---|---|
| Airport | Munich Airport (EDDM) |
| Time | Latitude | Longitude | Altitude | Speed | Heading |
|---|---|---|---|---|---|
| 2026-05-05 11:05 | 43.44015 | 5.22158 | 40 ft | 0 kts | 34° |
| 2026-05-05 11:23 | 43.44010 | 5.22153 | 40 ft | 4 kts | 34° |
| 2026-05-05 11:23 | 43.43988 | 5.22132 | 37 ft | 4 kts | 34° |
| 2026-05-05 11:24 | 43.43969 | 5.22114 | 38 ft | 4 kts | 54° |
| 2026-05-05 11:24 | 43.43961 | 5.22083 | 37 ft | 4 kts | 107° |
| 2026-05-05 11:24 | 43.43969 | 5.22064 | 40 ft | 1 kts | 134° |
| 2026-05-05 11:24 | 43.43971 | 5.22061 | 40 ft | 1 kts | 134° |
| 2026-05-05 11:26 | 43.43967 | 5.22067 | 40 ft | 2 kts | 134° |
| 2026-05-05 11:26 | 43.43956 | 5.22082 | 36 ft | 5 kts | 134° |
| 2026-05-05 11:27 | 43.43926 | 5.22126 | 41 ft | 8 kts | 133° |
| 2026-05-05 11:27 | 43.43872 | 5.22185 | 43 ft | 12 kts | 151° |
| 2026-05-05 11:27 | 43.43787 | 5.22228 | 44 ft | 14 kts | 165° |
| 2026-05-05 11:27 | 43.43709 | 5.22158 | 46 ft | 15 kts | 227° |
| 2026-05-05 11:28 | 43.43618 | 5.22121 | 47 ft | 15 kts | 150° |
| 2026-05-05 11:28 | 43.43606 | 5.22131 | 47 ft | 14 kts | 148° |
| 2026-05-05 11:28 | 43.43574 | 5.22159 | 48 ft | 13 kts | 149° |
| 2026-05-05 11:28 | 43.43505 | 5.22214 | 49 ft | 10 kts | 151° |
| 2026-05-05 11:29 | 43.43429 | 5.22272 | 52 ft | 15 kts | 154° |
| 2026-05-05 11:29 | 43.43319 | 5.22338 | 54 ft | 19 kts | 133° |
| 2026-05-05 11:29 | 43.43215 | 5.22487 | 58 ft | 24 kts | 136° |
| 2026-05-05 11:29 | 43.43099 | 5.22654 | 63 ft | 24 kts | 133° |
| 2026-05-05 11:30 | 43.42982 | 5.22820 | 69 ft | 24 kts | 138° |
| 2026-05-05 11:30 | 43.42867 | 5.22960 | 70 ft | 16 kts | 165° |
| 2026-05-05 11:30 | 43.42788 | 5.22913 | 66 ft | 11 kts | 219° |
| 2026-05-05 11:30 | 43.42741 | 5.22839 | 68 ft | 10 kts | 267° |
| 2026-05-05 11:31 | 43.42763 | 5.22794 | 68 ft | 0 kts | 314° |
| 2026-05-05 11:31 | 43.42765 | 5.22791 | 67 ft | 2 kts | 314° |
| 2026-05-05 11:31 | 43.42889 | 5.22613 | 65 ft | 63 kts | 314° |
| 2026-05-05 11:31 | 43.43359 | 5.21945 | 50 ft | 129 kts | 314° |
| 2026-05-05 11:32 | 43.44082 | 5.20893 | 241 ft | 159 kts | 311° |
| 2026-05-05 11:32 | 43.44840 | 5.19809 | 948 ft | 158 kts | 313° |
| 2026-05-05 11:32 | 43.45620 | 5.18704 | 1498 ft | 167 kts | 310° |
| 2026-05-05 11:32 | 43.46476 | 5.17490 | 1905 ft | 185 kts | 310° |
| 2026-05-05 11:33 | 43.47425 | 5.16155 | 2304 ft | 206 kts | 311° |
| 2026-05-05 11:33 | 43.48487 | 5.14643 | 2690 ft | 232 kts | 311° |
| 2026-05-05 11:33 | 43.49660 | 5.12961 | 3185 ft | 255 kts | 311° |
| 2026-05-05 11:33 | 43.50916 | 5.11163 | 4100 ft | 264 kts | 312° |
| 2026-05-05 11:34 | 43.52200 | 5.09329 | 5129 ft | 268 kts | 311° |
| 2026-05-05 11:34 | 43.53508 | 5.07463 | 6121 ft | 272 kts | 311° |
| 2026-05-05 11:34 | 43.54831 | 5.05572 | 7022 ft | 275 kts | 311° |
| 2026-05-05 11:34 | 43.56166 | 5.03662 | 7923 ft | 279 kts | 311° |
| 2026-05-05 11:35 | 43.57524 | 5.01717 | 8804 ft | 283 kts | 311° |
| 2026-05-05 11:35 | 43.58904 | 4.99753 | 9665 ft | 287 kts | 311° |
| 2026-05-05 11:35 | 43.60320 | 4.97746 | 10283 ft | 301 kts | 311° |
| 2026-05-05 11:35 | 43.61834 | 4.95596 | 10552 ft | 324 kts | 311° |
| 2026-05-05 11:36 | 43.63457 | 4.93288 | 10892 ft | 344 kts | 311° |
| 2026-05-05 11:36 | 43.65145 | 4.90894 | 11552 ft | 351 kts | 310° |
| 2026-05-05 11:36 | 43.66969 | 4.88601 | 12265 ft | 359 kts | 319° |
| 2026-05-05 11:36 | 43.69138 | 4.86801 | 12980 ft | 369 kts | 331° |
| 2026-05-05 11:37 | 43.71591 | 4.85613 | 13690 ft | 378 kts | 341° |
| 2026-05-05 11:37 | 43.74110 | 4.84645 | 14333 ft | 383 kts | 341° |
| 2026-05-05 11:37 | 43.76718 | 4.83635 | 14997 ft | 386 kts | 340° |
| 2026-05-05 11:37 | 43.79316 | 4.82621 | 15634 ft | 390 kts | 340° |
| 2026-05-05 11:38 | 43.81940 | 4.81590 | 16264 ft | 394 kts | 340° |
| 2026-05-05 11:38 | 43.84555 | 4.80557 | 16884 ft | 398 kts | 340° |
| 2026-05-05 11:38 | 43.87229 | 4.79496 | 17511 ft | 402 kts | 340° |
| 2026-05-05 11:38 | 43.89935 | 4.78426 | 18145 ft | 406 kts | 340° |
| 2026-05-05 11:39 | 43.92665 | 4.77351 | 18697 ft | 409 kts | 340° |
| 2026-05-05 11:39 | 43.95416 | 4.76265 | 19277 ft | 412 kts | 340° |
| 2026-05-05 11:39 | 43.97634 | 4.75388 | 19756 ft | 415 kts | 339° |
| 2026-05-05 11:40 | 43.99630 | 4.74600 | 20161 ft | 418 kts | 340° |
| 2026-05-05 11:40 | 44.00400 | 4.74309 | 20326 ft | 419 kts | 340° |
| 2026-05-05 11:40 | 44.02236 | 4.73656 | 20707 ft | 421 kts | 341° |
| 2026-05-05 11:40 | 44.05115 | 4.72732 | 21253 ft | 426 kts | 342° |
| 2026-05-05 11:41 | 44.08026 | 4.71877 | 21791 ft | 429 kts | 343° |
| 2026-05-05 11:41 | 44.10964 | 4.71043 | 22317 ft | 432 kts | 343° |
| 2026-05-05 11:41 | 44.13920 | 4.70195 | 22837 ft | 435 kts | 343° |
| 2026-05-05 11:41 | 44.16855 | 4.69333 | 23343 ft | 438 kts | 342° |
| 2026-05-05 11:42 | 44.19841 | 4.68431 | 23761 ft | 440 kts | 342° |
| 2026-05-05 11:42 | 44.22851 | 4.67500 | 24155 ft | 443 kts | 341° |
| 2026-05-05 11:42 | 44.25866 | 4.66553 | 24537 ft | 446 kts | 341° |
| 2026-05-05 11:42 | 44.28904 | 4.65597 | 24903 ft | 448 kts | 341° |
| 2026-05-05 11:43 | 44.31953 | 4.64642 | 25275 ft | 451 kts | 341° |
| 2026-05-05 11:43 | 44.35031 | 4.63684 | 25652 ft | 453 kts | 341° |
| 2026-05-05 11:43 | 44.38117 | 4.62723 | 26013 ft | 456 kts | 341° |
| 2026-05-05 11:43 | 44.41224 | 4.61758 | 26369 ft | 459 kts | 341° |
| 2026-05-05 11:44 | 44.44349 | 4.60790 | 26725 ft | 461 kts | 340° |
| 2026-05-05 11:44 | 44.47490 | 4.59815 | 27060 ft | 464 kts | 340° |
| 2026-05-05 11:44 | 44.50645 | 4.58833 | 27378 ft | 466 kts | 340° |
| 2026-05-05 11:44 | 44.53817 | 4.57845 | 27738 ft | 468 kts | 341° |
| 2026-05-05 11:45 | 44.57012 | 4.56849 | 28082 ft | 471 kts | 341° |
| 2026-05-05 11:45 | 44.60218 | 4.55846 | 28389 ft | 473 kts | 341° |
| 2026-05-05 11:45 | 44.63404 | 4.54859 | 28694 ft | 477 kts | 343° |
| 2026-05-05 11:45 | 44.66724 | 4.54278 | 28982 ft | 486 kts | 352° |
| 2026-05-05 11:46 | 44.70138 | 4.54380 | 29255 ft | 495 kts | 1° |
| 2026-05-05 11:46 | 44.73565 | 4.55026 | 29497 ft | 499 kts | 3° |
| 2026-05-05 11:46 | 44.77018 | 4.55709 | 29748 ft | 501 kts | 3° |
| 2026-05-05 11:46 | 44.80471 | 4.56386 | 29903 ft | 500 kts | 3° |
| 2026-05-05 11:47 | 44.83894 | 4.57057 | 29919 ft | 493 kts | 2° |
| 2026-05-05 11:47 | 44.90634 | 4.58361 | 29947 ft | 491 kts | 3° |
| 2026-05-05 11:48 | 45.00736 | 4.60318 | 29919 ft | 488 kts | 3° |
| 2026-05-05 11:48 | 45.07466 | 4.61646 | 29916 ft | 488 kts | 3° |
| 2026-05-05 11:49 | 45.14051 | 4.64056 | 29932 ft | 494 kts | 22° |
| 2026-05-05 11:49 | 45.17075 | 4.66404 | 29936 ft | 496 kts | 33° |
| 2026-05-05 11:49 | 45.19779 | 4.69447 | 29930 ft | 496 kts | 44° |
| 2026-05-05 11:50 | 45.22064 | 4.73096 | 29918 ft | 495 kts | 55° |
| 2026-05-05 11:50 | 45.23850 | 4.77191 | 29915 ft | 492 kts | 64° |